Terminal Aerodrome Forecast
Issued by NWS

Home | Current Version | Previous Version | Text Only | Print | Product List | Glossary On
Versions: 1 2 3 4 5 6 7 8 9 10 11 12 13 14 15 16 17 18 19 20 21 22 23 24 25 26 27 28 29 30 31 32 33 34 35 36
000
FTAK31 PANC 221422 AAA
TAFAGK
TAF AMD
PAGK 221422Z 2214/2312 VRB03KT P6SM VCSH SCT007 OVC015
      TEMPO 2214/2218 OVC007
     FM222100 VRB04KT P6SM VCSH BKN035=

USA.gov is the U.S. government's official web portal to all federal, state and local government web resources and services.